createdAt,value
2023-10-26T00:00:51.879Z,16.98
2023-10-26T00:04:53.633Z,17.55
2023-10-26T00:08:55.325Z,16.70
2023-10-26T00:12:57.065Z,16.92
2023-10-26T00:16:58.762Z,16.48
2023-10-26T00:21:01.944Z,16.67
2023-10-26T00:25:04.197Z,16.00
2023-10-26T00:29:05.951Z,16.35
2023-10-26T00:33:07.670Z,15.10
2023-10-26T00:37:09.449Z,16.02
2023-10-26T00:41:11.110Z,15.05
2023-10-26T00:45:12.857Z,16.12
2023-10-26T00:49:16.708Z,16.40
2023-10-26T00:53:21.199Z,15.68
2023-10-26T00:57:24.859Z,15.98
2023-10-26T01:01:27.756Z,15.85
2023-10-26T01:05:29.429Z,16.87
2023-10-26T01:09:31.108Z,16.42
2023-10-26T01:13:34.379Z,16.40
2023-10-26T01:17:39.212Z,16.12
2023-10-26T01:21:54.342Z,17.50
2023-10-26T01:25:57.549Z,17.15
2023-10-26T01:29:59.612Z,16.85
2023-10-26T01:34:01.348Z,16.95
2023-10-26T01:38:03.482Z,16.23
2023-10-26T01:42:10.808Z,15.48
2023-10-26T01:46:12.514Z,14.70
2023-10-26T01:50:14.431Z,16.37
2023-10-26T01:54:16.192Z,16.08
2023-10-26T01:58:18.025Z,14.65
2023-10-26T02:02:19.684Z,15.32
2023-10-26T02:06:21.649Z,14.85
2023-10-26T02:10:26.683Z,15.27
2023-10-26T02:14:28.325Z,15.73
2023-10-26T02:18:30.798Z,16.60
2023-10-26T02:22:32.533Z,15.88
2023-10-26T02:26:34.220Z,16.23
2023-10-26T02:30:35.879Z,15.48
2023-10-26T02:34:37.678Z,16.33
2023-10-26T02:38:39.506Z,15.38
2023-10-26T02:42:41.763Z,16.50
2023-10-26T02:46:43.457Z,15.20
2023-10-26T02:50:45.170Z,15.10
2023-10-26T02:54:46.913Z,16.00
2023-10-26T02:58:48.829Z,14.87
2023-10-26T03:02:50.607Z,16.08
2023-10-26T03:06:52.341Z,16.15
2023-10-26T03:10:54.031Z,16.00
2023-10-26T03:14:55.831Z,15.63
2023-10-26T03:18:57.515Z,15.23
2023-10-26T03:22:59.484Z,14.85
2023-10-26T03:27:01.187Z,15.73
2023-10-26T03:31:02.967Z,15.10
2023-10-26T03:35:05.155Z,14.57
2023-10-26T03:39:07.029Z,14.63
2023-10-26T03:43:08.795Z,13.68
2023-10-26T03:47:10.573Z,13.90
2023-10-26T03:51:12.323Z,13.80
2023-10-26T03:55:14.012Z,13.30
2023-10-26T03:59:15.676Z,13.23
2023-10-26T04:03:17.431Z,13.55
2023-10-26T04:07:19.587Z,13.27
2023-10-26T04:11:21.295Z,14.98
2023-10-26T04:15:23.104Z,14.82
2023-10-26T04:19:24.872Z,14.60
2023-10-26T04:23:27.576Z,15.50
2023-10-26T04:27:29.285Z,15.75
2023-10-26T04:31:31.006Z,15.23
2023-10-26T04:35:32.674Z,15.10
2023-10-26T04:39:34.650Z,15.70
2023-10-26T04:43:36.378Z,15.60
2023-10-26T04:47:38.923Z,16.17
2023-10-26T04:51:40.719Z,17.10
2023-10-26T04:55:42.460Z,15.98
2023-10-26T04:59:44.122Z,14.43
2023-10-26T05:03:45.905Z,16.17
2023-10-26T05:07:47.774Z,17.62
2023-10-26T05:11:49.439Z,15.50
2023-10-26T05:15:51.144Z,16.48
2023-10-26T05:19:53.050Z,16.75
2023-10-26T05:23:54.716Z,16.30
2023-10-26T05:27:56.429Z,16.27
2023-10-26T05:31:58.947Z,16.87
2023-10-26T05:36:00.701Z,16.12
2023-10-26T05:40:02.542Z,16.55
2023-10-26T05:44:04.333Z,17.33
2023-10-26T05:48:06.712Z,16.05
2023-10-26T05:52:08.473Z,16.80
2023-10-26T05:56:11.697Z,16.10
2023-10-26T06:00:13.891Z,17.92
2023-10-26T06:04:15.685Z,17.17
2023-10-26T06:08:18.145Z,16.67
2023-10-26T06:12:19.871Z,18.50
2023-10-26T06:16:21.603Z,17.08
2023-10-26T06:20:28.643Z,17.48
2023-10-26T06:24:30.487Z,17.20
2023-10-26T06:28:32.219Z,18.40
2023-10-26T06:32:36.047Z,16.35
2023-10-26T06:36:37.888Z,16.40
2023-10-26T06:40:39.666Z,17.00
2023-10-26T06:44:41.532Z,18.35
2023-10-26T06:48:43.621Z,17.95
2023-10-26T06:52:45.566Z,16.40
2023-10-26T06:56:47.256Z,18.27
2023-10-26T07:00:52.803Z,18.00
2023-10-26T07:04:55.332Z,18.33
2023-10-26T07:08:57.108Z,17.35
2023-10-26T07:12:58.848Z,19.17
2023-10-26T07:17:00.587Z,17.80
2023-10-26T07:21:06.774Z,18.15
2023-10-26T07:25:08.904Z,18.15
2023-10-26T07:29:10.667Z,16.12
2023-10-26T07:33:12.499Z,19.65
2023-10-26T07:37:14.579Z,19.50
2023-10-26T07:41:16.254Z,17.98
2023-10-26T07:45:18.170Z,18.00
2023-10-26T07:49:19.928Z,18.60
2023-10-26T07:53:21.988Z,17.62
2023-10-26T07:57:24.041Z,19.08
2023-10-26T08:01:25.833Z,16.58
2023-10-26T08:05:27.551Z,16.92
2023-10-26T08:09:32.998Z,17.55
2023-10-26T08:13:35.063Z,15.63
2023-10-26T08:17:37.270Z,15.65
2023-10-26T08:21:39.104Z,15.85
2023-10-26T08:25:40.820Z,16.10
2023-10-26T08:29:42.736Z,17.20
2023-10-26T08:33:44.576Z,16.60
2023-10-26T08:37:46.798Z,17.42
2023-10-26T08:41:58.822Z,15.10
2023-10-26T08:46:04.254Z,14.68
2023-10-26T08:50:16.320Z,14.27
2023-10-26T08:54:18.715Z,13.95
2023-10-26T08:58:21.623Z,12.45
2023-10-26T09:02:23.502Z,12.60
2023-10-26T09:06:25.530Z,12.77
2023-10-26T09:10:32.126Z,11.57
2023-10-26T09:14:33.880Z,12.10
2023-10-26T09:18:36.959Z,10.98
2023-10-26T09:22:39.656Z,12.32
2023-10-26T09:26:41.322Z,11.10
2023-10-26T09:30:43.463Z,9.80
2023-10-26T09:34:47.248Z,9.63
2023-10-26T09:38:49.409Z,8.05
2023-10-26T09:42:51.588Z,7.85
2023-10-26T09:46:53.523Z,7.57
2023-10-26T09:50:58.065Z,7.32
2023-10-26T09:55:00.608Z,7.70
2023-10-26T09:59:03.022Z,8.70
2023-10-26T10:03:18.380Z,8.35
2023-10-26T10:07:44.935Z,8.57
2023-10-26T10:12:08.978Z,10.05
2023-10-26T10:16:36.532Z,9.30
2023-10-26T10:20:42.065Z,8.63
2023-10-26T10:24:44.528Z,9.40
2023-10-26T10:28:51.819Z,9.23
2023-10-26T10:37:12.857Z,8.35
2023-10-26T10:41:17.258Z,9.35
2023-10-26T10:45:19.674Z,9.02
2023-10-26T10:49:24.980Z,9.57
2023-10-26T10:53:28.923Z,9.23
2023-10-26T10:57:30.710Z,9.02
2023-10-26T11:01:33.154Z,8.68
2023-10-26T11:05:40.672Z,9.40
2023-10-26T11:09:42.680Z,8.00
2023-10-26T11:13:44.415Z,6.78
2023-10-26T11:17:46.276Z,7.07
2023-10-26T11:21:53.756Z,6.70
2023-10-26T11:25:55.428Z,6.32
2023-10-26T11:30:03.156Z,5.78
2023-10-26T11:34:08.247Z,5.70
2023-10-26T11:38:09.928Z,4.40
2023-10-26T11:42:11.568Z,4.87
2023-10-26T11:46:13.356Z,5.07
2023-10-26T11:50:37.644Z,5.80
2023-10-26T11:54:52.074Z,6.65
2023-10-26T11:58:53.908Z,6.62
2023-10-26T12:02:59.644Z,6.43
2023-10-26T12:07:01.432Z,7.35
2023-10-26T12:11:05.219Z,6.60
2023-10-26T12:15:07.915Z,8.18
2023-10-26T12:19:11.239Z,7.35
2023-10-26T12:23:12.921Z,7.00
2023-10-26T12:27:17.421Z,7.00
2023-10-26T12:31:19.284Z,6.50
2023-10-26T12:35:21.632Z,5.80
2023-10-26T12:39:23.478Z,5.50
2023-10-26T12:43:25.178Z,5.75
2023-10-26T12:47:26.960Z,4.82
2023-10-26T12:51:28.681Z,5.22
2023-10-26T12:55:31.042Z,5.40
2023-10-26T12:59:32.760Z,5.97
2023-10-26T13:03:34.516Z,5.95
2023-10-26T13:07:36.367Z,6.50
2023-10-26T13:11:38.042Z,7.50
2023-10-26T13:15:40.657Z,7.80
2023-10-26T13:19:42.488Z,6.20
2023-10-26T13:23:44.507Z,7.37
2023-10-26T13:27:46.262Z,6.07
2023-10-26T13:31:48.019Z,7.37
2023-10-26T13:35:49.924Z,6.62
2023-10-26T13:39:51.663Z,6.87
2023-10-26T13:43:54.490Z,6.82
2023-10-26T13:47:56.210Z,6.45
2023-10-26T13:51:57.975Z,7.20
2023-10-26T13:56:02.949Z,5.43
2023-10-26T14:00:08.040Z,6.07
2023-10-26T14:04:09.968Z,6.82
2023-10-26T14:08:11.678Z,6.03
2023-10-26T14:12:14.186Z,5.07
2023-10-26T14:16:16.878Z,5.53
2023-10-26T14:20:18.718Z,5.25
2023-10-26T14:24:20.432Z,5.32
2023-10-26T14:28:22.174Z,6.25
2023-10-26T14:32:23.989Z,6.85
2023-10-26T14:36:25.688Z,6.18
2023-10-26T14:40:29.596Z,5.12
2023-10-26T14:44:31.627Z,5.53
2023-10-26T14:48:33.425Z,6.37
2023-10-26T14:52:35.427Z,6.22
2023-10-26T14:56:37.213Z,5.40
2023-10-26T15:00:39.761Z,5.95
2023-10-26T15:04:41.773Z,6.18
2023-10-26T15:08:43.597Z,4.62
2023-10-26T15:12:45.373Z,5.85
2023-10-26T15:16:47.189Z,6.78
2023-10-26T15:20:49.009Z,8.20
2023-10-26T15:24:50.778Z,7.53
2023-10-26T15:28:52.542Z,6.85
2023-10-26T15:32:54.320Z,8.20
2023-10-26T15:36:56.825Z,7.32
2023-10-26T15:41:04.224Z,6.62
2023-10-26T15:45:06.489Z,10.20
2023-10-26T15:49:33.065Z,10.32
2023-10-26T15:53:31.406Z,10.07
2023-10-26T15:57:33.845Z,9.02
2023-10-26T16:01:35.713Z,8.68
2023-10-26T16:05:37.471Z,8.60
2023-10-26T16:09:39.259Z,8.77
2023-10-26T16:13:45.863Z,8.02
2023-10-26T16:17:47.655Z,9.10
2023-10-26T16:21:49.431Z,8.32
2023-10-26T16:25:51.173Z,7.78
2023-10-26T16:29:52.931Z,8.82
2023-10-26T16:33:54.700Z,8.70
2023-10-26T16:37:56.403Z,9.77
2023-10-26T16:41:58.127Z,10.10
2023-10-26T16:46:00.638Z,10.65
2023-10-26T16:50:02.394Z,9.73
2023-10-26T16:54:04.604Z,9.85
2023-10-26T16:58:07.867Z,10.13
2023-10-26T17:02:09.573Z,10.55
2023-10-26T17:06:11.571Z,10.45
2023-10-26T17:10:13.363Z,10.55
2023-10-26T17:14:15.136Z,9.90
2023-10-26T17:18:16.871Z,10.63
2023-10-26T17:22:21.660Z,9.43
2023-10-26T17:26:23.727Z,7.93
2023-10-26T17:30:25.390Z,7.50
2023-10-26T17:34:27.971Z,7.75
2023-10-26T17:38:29.866Z,7.55
2023-10-26T17:42:31.639Z,7.18
2023-10-26T17:46:33.439Z,6.25
2023-10-26T17:50:42.399Z,6.45
2023-10-26T17:54:44.227Z,6.87
2023-10-26T17:58:45.937Z,5.93
2023-10-26T18:02:47.633Z,5.72
2023-10-26T18:06:49.397Z,5.45
2023-10-26T18:10:51.115Z,5.80
2023-10-26T18:14:52.862Z,6.10
2023-10-26T18:18:54.621Z,5.12
2023-10-26T18:22:56.350Z,5.18
2023-10-26T18:26:58.088Z,5.40
2023-10-26T18:31:04.240Z,5.37
2023-10-26T18:35:06.552Z,5.70
2023-10-26T18:39:08.464Z,5.47
2023-10-26T18:43:10.245Z,5.25
2023-10-26T18:47:12.043Z,5.78
2023-10-26T18:51:13.905Z,5.75
2023-10-26T18:55:16.399Z,5.93
2023-10-26T18:59:18.154Z,6.35
2023-10-26T19:03:22.323Z,6.25
2023-10-26T19:07:24.112Z,5.47
2023-10-26T19:11:25.957Z,6.03
2023-10-26T19:15:27.786Z,6.60
2023-10-26T19:19:29.634Z,6.50
2023-10-26T19:23:31.601Z,6.85
2023-10-26T19:27:33.342Z,5.78
2023-10-26T19:31:35.232Z,6.22
2023-10-26T19:35:38.196Z,6.55
2023-10-26T19:39:40.044Z,6.20
2023-10-26T19:43:41.882Z,5.75
2023-10-26T19:47:44.369Z,6.47
2023-10-26T19:56:50.685Z,6.75
2023-10-26T20:00:52.828Z,6.68
2023-10-26T20:04:54.624Z,8.25
2023-10-26T20:08:56.377Z,7.43
2023-10-26T20:12:58.179Z,7.53
2023-10-26T20:17:00.708Z,7.30
2023-10-26T20:21:02.457Z,7.68
2023-10-26T20:25:05.222Z,7.65
2023-10-26T20:29:07.526Z,7.15
2023-10-26T20:33:09.251Z,7.90
2023-10-26T20:37:11.622Z,6.65
2023-10-26T20:41:13.381Z,7.35
2023-10-26T20:45:15.170Z,8.43
2023-10-26T20:49:17.131Z,8.20
2023-10-26T20:53:21.724Z,7.30
2023-10-26T20:57:23.598Z,7.97
2023-10-26T21:01:25.385Z,8.40
2023-10-26T21:05:27.674Z,8.05
2023-10-26T21:09:29.478Z,8.48
2023-10-26T21:13:31.840Z,8.52
2023-10-26T21:17:34.948Z,9.02
2023-10-26T21:21:36.841Z,9.10
2023-10-26T21:25:38.640Z,8.43
2023-10-26T21:29:40.488Z,8.88
2023-10-26T21:33:42.399Z,9.07
2023-10-26T21:37:44.117Z,8.77
2023-10-26T21:41:45.866Z,9.27
2023-10-26T21:45:47.630Z,8.93
2023-10-26T21:49:49.429Z,10.48
2023-10-26T21:53:51.122Z,8.63
2023-10-26T21:57:53.033Z,10.65
2023-10-26T22:01:54.918Z,9.73
2023-10-26T22:05:56.901Z,9.55
2023-10-26T22:09:58.837Z,9.00
2023-10-26T22:14:00.637Z,9.05
2023-10-26T22:18:02.561Z,9.18
2023-10-26T22:22:04.577Z,9.30
2023-10-26T22:26:06.358Z,8.75
2023-10-26T22:30:08.669Z,8.60
2023-10-26T22:34:10.475Z,8.90
2023-10-26T22:38:12.188Z,8.60
2023-10-26T22:42:15.630Z,8.77
2023-10-26T22:46:18.184Z,9.43
2023-10-26T22:50:20.343Z,8.93
2023-10-26T22:54:22.418Z,8.75
2023-10-26T22:58:24.814Z,7.95
2023-10-26T23:02:26.689Z,9.00
2023-10-26T23:06:29.316Z,8.68
2023-10-26T23:10:31.102Z,8.20
2023-10-26T23:14:32.849Z,8.30
2023-10-26T23:18:34.631Z,8.73
2023-10-26T23:22:36.433Z,7.57
2023-10-26T23:26:38.146Z,8.93
2023-10-26T23:30:40.042Z,9.07
2023-10-26T23:34:42.154Z,8.70
2023-10-26T23:38:46.015Z,8.50
2023-10-26T23:42:47.757Z,8.40
2023-10-26T23:46:49.487Z,7.53
2023-10-26T23:50:51.230Z,7.60
2023-10-26T23:54:54.240Z,7.72
2023-10-26T23:58:56.167Z,7.65
